Time;durP1;ratioP1;P1;durP2;ratioP2;P2;SDS_P1;SDS_P2;PMS_P1;PMS_P2;Temp;Humidity;BMP_temperature;BMP_pressure;BME280_temperature;BME280_humidity;BME280_pressure;Samples;Min_cycle;Max_cycle;Signal;HPM_P1;HPM_P2
2022/05/18 00:00:51;;;;;;;2.05;0.70;;;17.30;99.90;;;;;;4978260;28;20038;-74
2022/05/18 00:03:21;;;;;;;0.60;0.57;;;17.20;99.90;;;;;;4996269;28;20050;-73
2022/05/18 00:05:47;;;;;;;0.30;0.30;;;17.20;99.90;;;;;;4995664;28;20054;-73
2022/05/18 00:08:13;;;;;;;0.38;0.38;;;17.10;99.90;;;;;;4978097;28;20047;-73
2022/05/18 00:10:42;;;;;;;0.40;0.40;;;17.10;99.90;;;;;;4995803;28;20125;-74
2022/05/18 00:13:09;;;;;;;0.40;0.40;;;17.00;99.90;;;;;;4995981;28;20355;-73
2022/05/18 00:15:35;;;;;;;0.73;0.60;;;16.90;99.90;;;;;;4979149;28;20424;-72
2022/05/18 00:18:00;;;;;;;2.72;0.90;;;16.90;99.90;;;;;;4995867;28;20053;-72
2022/05/18 00:20:27;;;;;;;0.90;0.73;;;16.80;99.90;;;;;;4995466;28;20141;-73
2022/05/18 00:22:58;;;;;;;1.70;0.93;;;16.80;99.90;;;;;;4995899;28;20091;-73
2022/05/18 00:25:27;;;;;;;0.70;0.60;;;16.80;99.90;;;;;;4994570;28;20081;-73
2022/05/18 00:27:53;;;;;;;0.30;0.30;;;16.70;99.90;;;;;;4995429;28;20042;-74
2022/05/18 00:30:20;;;;;;;0.40;0.40;;;16.70;99.90;;;;;;4995319;28;20505;-73
2022/05/18 00:32:46;;;;;;;2.13;1.67;;;16.60;99.90;;;;;;4995868;28;20047;-73
2022/05/18 00:35:13;;;;;;;0.88;0.88;;;16.60;99.90;;;;;;4995629;28;20509;-74
2022/05/18 00:37:38;;;;;;;0.30;0.30;;;16.60;99.90;;;;;;4995606;28;20046;-73
2022/05/18 00:40:05;;;;;;;1.27;0.50;;;16.50;99.90;;;;;;4987727;28;20074;-74
2022/05/18 00:42:31;;;;;;;1.65;1.50;;;16.50;99.90;;;;;;4987489;28;20042;-73
2022/05/18 00:44:57;;;;;;;0.60;0.50;;;16.50;99.90;;;;;;4978164;28;20057;-73
2022/05/18 00:47:23;;;;;;;0.38;0.38;;;16.50;99.90;;;;;;4995632;28;20497;-72
2022/05/18 00:50:00;;;;;;;0.50;0.50;;;16.40;99.90;;;;;;4994911;28;20054;-72
2022/05/18 00:52:31;;;;;;;0.30;0.30;;;16.40;99.90;;;;;;4995454;28;20529;-73
2022/05/18 00:54:59;;;;;;;0.30;0.30;;;16.30;99.90;;;;;;4979420;28;20055;-75
2022/05/18 00:57:30;;;;;;;0.30;0.30;;;16.30;99.90;;;;;;4994411;28;20421;-74
2022/05/18 01:00:00;;;;;;;9.77;1.08;;;16.30;99.90;;;;;;4979758;28;20042;-72
2022/05/18 01:02:32;;;;;;;0.73;0.73;;;16.30;99.90;;;;;;4999207;28;20124;-74
2022/05/18 01:05:00;;;;;;;0.52;0.52;;;16.20;99.90;;;;;;4998823;28;20081;-73
2022/05/18 01:07:36;;;;;;;0.30;0.30;;;16.20;99.90;;;;;;4998885;28;20064;-74
2022/05/18 01:10:02;;;;;;;0.32;0.32;;;16.20;99.90;;;;;;4997108;28;20038;-73
2022/05/18 01:12:28;;;;;;;0.77;0.77;;;16.20;99.90;;;;;;4971133;28;20057;-74
2022/05/18 01:15:12;;;;;;;0.40;0.40;;;16.10;99.90;;;;;;4999081;28;20042;-73
2022/05/18 01:17:42;;;;;;;0.32;0.32;;;16.10;99.90;;;;;;4998586;28;20046;-73
2022/05/18 01:20:11;;;;;;;0.40;0.40;;;16.10;99.90;;;;;;4998874;28;20062;-74
2022/05/18 01:23:06;;;;;;;0.30;0.30;;;16.00;99.90;;;;;;4998935;28;20042;-74
2022/05/18 01:26:10;;;;;;;0.50;0.50;;;16.00;99.90;;;;;;4998678;28;20475;-75
2022/05/18 01:28:42;;;;;;;0.57;0.57;;;15.90;99.90;;;;;;4979252;28;20094;-73
2022/05/18 01:31:08;;;;;;;0.30;0.30;;;16.00;99.90;;;;;;4998549;28;20120;-75
2022/05/18 01:33:34;;;;;;;0.22;0.22;;;15.90;99.90;;;;;;4998695;28;20046;-75
2022/05/18 01:36:00;;;;;;;0.32;0.32;;;15.90;99.90;;;;;;4998497;28;20069;-75
2022/05/18 01:38:26;;;;;;;0.50;0.30;;;15.90;99.90;;;;;;4964431;28;20054;-73
2022/05/18 01:41:03;;;;;;;0.52;0.40;;;15.80;99.90;;;;;;4971710;28;20373;-73
2022/05/18 01:43:33;;;;;;;0.22;0.22;;;15.80;99.90;;;;;;4979008;28;20068;-73
2022/05/18 01:46:01;;;;;;;0.52;0.50;;;15.80;99.90;;;;;;4978698;28;20047;-73
2022/05/18 01:48:33;;;;;;;0.43;0.43;;;15.70;99.90;;;;;;4978831;28;20133;-74
2022/05/18 01:51:01;;;;;;;0.38;0.38;;;15.70;99.90;;;;;;4979262;28;20046;-74
2022/05/18 01:53:28;;;;;;;0.30;0.30;;;15.70;99.90;;;;;;4978490;28;20137;-74
2022/05/18 01:55:53;;;;;;;0.30;0.30;;;15.60;99.90;;;;;;4978967;28;20039;-73
2022/05/18 01:58:19;;;;;;;0.73;0.73;;;15.70;99.90;;;;;;4997967;28;20046;-73
2022/05/18 02:00:46;;;;;;;0.25;0.25;;;15.70;99.90;;;;;;4998026;28;20134;-73
2022/05/18 02:03:14;;;;;;;0.30;0.30;;;15.70;99.90;;;;;;4980724;28;20050;-75
2022/05/18 02:05:39;;;;;;;0.50;0.47;;;15.60;99.90;;;;;;4997664;28;20094;-73
2022/05/18 02:08:05;;;;;;;0.40;0.40;;;15.60;99.90;;;;;;4997830;28;20094;-75
2022/05/18 02:10:33;;;;;;;0.43;0.32;;;15.60;99.90;;;;;;4997721;28;20108;-73
2022/05/18 02:12:58;;;;;;;4.85;1.27;;;15.60;99.90;;;;;;4989362;28;20042;-74
2022/05/18 02:15:24;;;;;;;0.70;0.68;;;15.50;99.90;;;;;;4997611;28;20054;-73
2022/05/18 02:17:51;;;;;;;0.30;0.30;;;15.50;99.90;;;;;;4997611;28;20054;-75
2022/05/18 02:20:17;;;;;;;0.52;0.52;;;15.50;99.90;;;;;;4997925;28;20395;-75
2022/05/18 02:22:43;;;;;;;2.35;2.15;;;15.50;99.90;;;;;;4997228;28;20446;-75
2022/05/18 02:25:09;;;;;;;0.75;0.60;;;15.40;99.90;;;;;;4997398;28;20190;-72
2022/05/18 02:27:35;;;;;;;0.95;0.55;;;15.40;99.90;;;;;;4996846;28;20046;-74
2022/05/18 02:30:02;;;;;;;0.50;0.50;;;15.40;99.90;;;;;;4980508;28;20050;-74
2022/05/18 02:32:28;;;;;;;0.30;0.30;;;15.40;99.90;;;;;;4997271;28;20042;-74
2022/05/18 02:34:53;;;;;;;0.60;0.60;;;15.40;99.90;;;;;;4980543;28;20076;-74
2022/05/18 02:37:19;;;;;;;0.30;0.30;;;15.30;99.90;;;;;;4997292;28;20046;-74
2022/05/18 02:39:45;;;;;;;0.30;0.30;;;15.30;99.90;;;;;;4997448;28;20057;-76
2022/05/18 02:42:10;;;;;;;0.30;0.30;;;15.30;99.90;;;;;;4991336;28;20066;-75
2022/05/18 02:44:36;;;;;;;0.52;0.52;;;15.20;99.90;;;;;;4964205;28;20048;-73
2022/05/18 02:47:03;;;;;;;0.55;0.55;;;15.20;99.90;;;;;;4997140;28;20042;-73
2022/05/18 02:49:28;;;;;;;0.40;0.40;;;15.20;99.90;;;;;;4996987;28;20046;-74
2022/05/18 02:51:54;;;;;;;0.25;0.25;;;15.10;99.90;;;;;;4996809;28;20068;-74
2022/05/18 02:57:05;;;;;;;0.30;0.30;;;15.10;99.90;;;;;;4996274;28;20418;-74
2022/05/18 02:59:31;;;;;;;0.28;0.28;;;15.10;99.90;;;;;;4996835;28;20046;-73
2022/05/18 03:01:57;;;;;;;0.40;0.40;;;15.10;99.90;;;;;;4996656;28;20042;-74
2022/05/18 03:04:23;;;;;;;0.40;0.40;;;15.00;99.90;;;;;;4996682;28;20042;-74
2022/05/18 03:06:49;;;;;;;0.40;0.40;;;15.10;99.90;;;;;;4996640;28;20038;-73
2022/05/18 03:09:14;;;;;;;0.60;0.60;;;15.00;99.90;;;;;;4963735;28;20053;-73
2022/05/18 03:11:41;;;;;;;0.30;0.30;;;15.00;99.90;;;;;;4983653;28;20101;-74
2022/05/18 03:14:07;;;;;;;0.40;0.40;;;15.00;99.90;;;;;;4977329;28;20043;-74
2022/05/18 03:16:33;;;;;;;0.40;0.40;;;15.00;99.90;;;;;;4977367;28;20051;-75
2022/05/18 03:18:59;;;;;;;0.35;0.35;;;14.90;99.90;;;;;;4976696;28;20059;-73
2022/05/18 03:24:10;;;;;;;0.47;0.47;;;14.90;99.90;;;;;;4977076;28;20047;-74
2022/05/18 03:26:36;;;;;;;0.43;0.43;;;14.90;99.90;;;;;;4978376;28;20046;-77
2022/05/18 03:29:02;;;;;;;0.32;0.32;;;14.90;99.90;;;;;;4963437;28;20123;-74
2022/05/18 03:31:27;;;;;;;0.50;0.50;;;14.90;99.90;;;;;;4978887;28;20383;-75
2022/05/18 03:33:58;;;;;;;0.95;0.85;;;14.90;99.90;;;;;;4979193;28;20085;-74
2022/05/18 03:36:24;;;;;;;1.13;0.63;;;14.90;99.90;;;;;;4996260;28;20050;-74
2022/05/18 03:38:50;;;;;;;1.23;0.77;;;14.90;99.90;;;;;;4996457;28;20050;-73
2022/05/18 03:41:17;;;;;;;0.40;0.40;;;14.90;99.90;;;;;;4965465;28;20451;-73
2022/05/18 03:43:42;;;;;;;0.50;0.50;;;15.00;99.90;;;;;;4976415;28;20050;-73
2022/05/18 03:46:09;;;;;;;0.47;0.45;;;14.90;99.90;;;;;;4976247;28;20057;-74
2022/05/18 03:48:35;;;;;;;0.77;0.55;;;14.90;99.90;;;;;;4976637;28;20084;-73
2022/05/18 03:51:03;;;;;;;0.47;0.47;;;15.00;99.90;;;;;;4976447;28;20113;-73
2022/05/18 03:53:29;;;;;;;0.30;0.30;;;15.00;99.90;;;;;;4976761;28;20047;-73
2022/05/18 03:55:55;;;;;;;2.83;1.05;;;15.00;99.90;;;;;;4977528;28;20101;-73
2022/05/18 03:58:21;;;;;;;0.77;0.57;;;15.00;99.90;;;;;;4985234;28;20372;-73
2022/05/18 04:00:49;;;;;;;0.60;0.50;;;15.00;99.90;;;;;;4994267;28;20108;-74
2022/05/18 04:03:16;;;;;;;0.40;0.40;;;15.00;99.90;;;;;;4977363;28;20050;-74
2022/05/18 04:05:42;;;;;;;0.55;0.55;;;15.10;99.90;;;;;;4981305;28;20080;-73
2022/05/18 04:08:09;;;;;;;0.73;0.70;;;15.10;99.90;;;;;;4986742;28;20078;-72
2022/05/18 04:10:38;;;;;;;0.50;0.50;;;15.10;99.90;;;;;;4995365;28;20050;-75
2022/05/18 04:13:04;;;;;;;0.40;0.40;;;15.20;99.90;;;;;;4977466;28;20055;-72
2022/05/18 04:15:30;;;;;;;0.45;0.45;;;15.20;99.90;;;;;;4976567;28;20057;-72
2022/05/18 04:17:56;;;;;;;0.85;0.80;;;15.20;99.90;;;;;;4959403;28;20487;-72
2022/05/18 04:20:23;;;;;;;0.68;0.52;;;15.20;99.90;;;;;;4958639;28;20227;-74
2022/05/18 04:22:50;;;;;;;0.30;0.30;;;15.20;99.90;;;;;;4959133;28;20069;-73
2022/05/18 04:25:18;;;;;;;0.30;0.30;;;15.20;99.90;;;;;;4959278;28;20129;-73
2022/05/18 04:27:47;;;;;;;0.40;0.40;;;15.20;99.90;;;;;;4976237;28;20046;-74
2022/05/18 04:30:13;;;;;;;0.73;0.73;;;15.30;99.90;;;;;;4975911;28;20477;-73
2022/05/18 04:32:40;;;;;;;0.50;0.50;;;15.30;99.90;;;;;;4976253;28;20050;-73
2022/05/18 04:35:08;;;;;;;0.45;0.40;;;15.30;99.90;;;;;;4979827;28;20478;-74
2022/05/18 04:37:34;;;;;;;0.68;0.68;;;15.30;99.90;;;;;;4999490;28;20386;-74
2022/05/18 04:40:00;;;;;;;0.50;0.50;;;15.40;99.90;;;;;;4982415;28;20489;-72
2022/05/18 04:42:26;;;;;;;0.70;0.70;;;15.40;99.90;;;;;;4999298;28;20093;-72
2022/05/18 04:44:52;;;;;;;1.20;0.77;;;15.50;99.90;;;;;;4982207;28;20046;-70
2022/05/18 04:47:21;;;;;;;0.30;0.30;;;15.50;99.90;;;;;;4990574;28;20062;-71
2022/05/18 04:49:49;;;;;;;0.30;0.30;;;15.50;99.90;;;;;;4979929;28;20120;-71
2022/05/18 04:52:14;;;;;;;0.50;0.50;;;15.60;99.90;;;;;;4979801;28;20130;-70
2022/05/18 04:54:40;;;;;;;0.95;0.40;;;15.60;99.90;;;;;;4963134;28;20477;-69
2022/05/18 04:57:06;;;;;;;0.40;0.40;;;15.70;99.90;;;;;;4979942;28;20034;-71
2022/05/18 04:59:31;;;;;;;0.43;0.40;;;15.80;99.90;;;;;;4979651;28;20043;-70
2022/05/18 05:01:57;;;;;;;0.30;0.30;;;15.80;99.90;;;;;;4980000;28;20082;-74
2022/05/18 05:04:22;;;;;;;0.50;0.50;;;15.90;99.90;;;;;;4979127;28;20042;-72
2022/05/18 05:06:48;;;;;;;0.57;0.57;;;16.10;99.90;;;;;;4979382;28;20055;-72
2022/05/18 05:09:14;;;;;;;0.70;0.35;;;16.10;99.90;;;;;;4979221;28;20112;-73
2022/05/18 05:11:39;;;;;;;0.60;0.60;;;16.20;99.90;;;;;;4979662;28;20113;-74
2022/05/18 05:14:05;;;;;;;0.50;0.50;;;16.30;99.90;;;;;;4962099;28;20047;-72
2022/05/18 05:16:33;;;;;;;0.40;0.40;;;16.60;99.90;;;;;;4992258;28;20050;-72
2022/05/18 05:18:59;;;;;;;0.55;0.55;;;17.20;99.90;;;;;;4998508;28;20054;-72
2022/05/18 05:21:24;;;;;;;0.52;0.47;;;17.60;99.90;;;;;;4998649;28;20182;-73
2022/05/18 05:23:50;;;;;;;0.30;0.30;;;18.50;99.90;;;;;;4998668;28;20479;-74
2022/05/18 05:26:16;;;;;;;1.45;1.35;;;19.80;99.90;;;;;;4998942;28;20112;-75
2022/05/18 05:28:41;;;;;;;0.77;0.68;;;21.10;99.90;;;;;;4998577;28;20069;-74
2022/05/18 05:31:09;;;;;;;1.33;1.13;;;22.10;99.90;;;;;;4988596;28;20043;-72
2022/05/18 05:33:37;;;;;;;1.00;0.88;;;22.90;99.90;;;;;;4987553;28;20046;-75
2022/05/18 05:36:03;;;;;;;2.10;0.50;;;23.40;99.90;;;;;;4993738;28;20050;-71
2022/05/18 05:38:29;;;;;;;0.68;0.50;;;24.00;99.90;;;;;;4976869;28;20117;-72
2022/05/18 05:40:55;;;;;;;0.50;0.50;;;24.70;99.90;;;;;;4972352;28;20058;-72
2022/05/18 05:43:21;;;;;;;0.77;0.47;;;25.20;99.90;;;;;;4996836;28;20035;-71
2022/05/18 05:46:05;;;;;;;0.63;0.63;;;25.80;99.90;;;;;;4979641;28;20125;-70
2022/05/18 05:48:31;;;;;;;1.08;0.65;;;26.70;99.90;;;;;;4998193;28;20112;-71
2022/05/18 05:50:58;;;;;;;0.52;0.40;;;26.50;98.30;;;;;;4991904;28;20486;-69
2022/05/18 05:53:24;;;;;;;1.30;0.45;;;26.70;99.40;;;;;;4980619;28;20460;-70
2022/05/18 05:55:51;;;;;;;3.20;1.25;;;27.10;99.50;;;;;;4997840;28;20125;-69
2022/05/18 05:58:18;;;;;;;0.43;0.40;;;27.30;96.00;;;;;;4997848;28;20038;-70
2022/05/18 06:00:43;;;;;;;1.45;1.05;;;27.50;96.50;;;;;;4996800;28;20488;-72
2022/05/18 06:03:09;;;;;;;1.13;0.50;;;27.60;96.70;;;;;;4996706;28;20088;-72
2022/05/18 06:05:34;;;;;;;0.57;0.32;;;28.10;95.90;;;;;;4997176;28;20042;-73
2022/05/18 06:08:00;;;;;;;0.60;0.40;;;28.50;94.40;;;;;;4980154;28;20050;-74
2022/05/18 06:10:25;;;;;;;0.55;0.35;;;29.00;93.40;;;;;;4997539;28;20046;-74
2022/05/18 06:12:51;;;;;;;0.30;0.30;;;29.10;90.90;;;;;;5005617;28;20037;-73
2022/05/18 06:15:17;;;;;;;2.10;1.27;;;28.90;91.80;;;;;;4993685;28;20494;-73
2022/05/18 06:17:42;;;;;;;1.00;0.85;;;29.00;91.80;;;;;;4987197;28;20057;-70
2022/05/18 06:20:08;;;;;;;0.88;0.47;;;29.20;91.40;;;;;;4996425;28;20065;-69
2022/05/18 06:22:34;;;;;;;2.15;1.95;;;29.30;90.70;;;;;;4997360;28;20042;-71
2022/05/18 06:25:00;;;;;;;0.40;0.25;;;30.00;90.80;;;;;;4968901;28;20093;-72
2022/05/18 06:27:26;;;;;;;0.57;0.43;;;30.00;88.20;;;;;;4995223;28;20051;-73
2022/05/18 06:29:52;;;;;;;0.22;0.22;;;30.20;89.40;;;;;;4995689;28;20097;-71
2022/05/18 06:32:18;;;;;;;0.45;0.38;;;30.30;84.80;;;;;;4962435;28;20125;-72
2022/05/18 06:34:48;;;;;;;0.63;0.60;;;30.30;85.80;;;;;;4992820;28;20410;-72
2022/05/18 06:37:14;;;;;;;0.95;0.52;;;30.40;86.00;;;;;;4980013;28;20050;-73
2022/05/18 06:39:40;;;;;;;0.57;0.50;;;30.40;84.80;;;;;;4997112;28;20116;-73
2022/05/18 06:42:06;;;;;;;0.35;0.35;;;29.90;83.40;;;;;;4993614;28;20042;-72
2022/05/18 06:44:32;;;;;;;1.55;0.73;;;30.20;86.20;;;;;;4983654;28;20106;-73
2022/05/18 06:47:00;;;;;;;1.58;0.77;;;30.60;85.20;;;;;;4996987;28;20038;-71
2022/05/18 06:49:26;;;;;;;1.38;0.52;;;30.70;85.10;;;;;;4996201;28;20463;-71
2022/05/18 06:51:53;;;;;;;1.15;0.43;;;30.60;82.50;;;;;;4990761;28;20043;-70
2022/05/18 06:54:18;;;;;;;2.00;0.43;;;30.30;84.50;;;;;;4992928;28;20034;-73
2022/05/18 06:56:45;;;;;;;0.30;0.22;;;30.70;83.50;;;;;;4989335;28;20039;-72
2022/05/18 06:59:13;;;;;;;1.05;0.73;;;30.90;82.10;;;;;;4989501;28;20050;-73
2022/05/18 07:01:39;;;;;;;0.25;0.20;;;31.00;82.20;;;;;;4990603;28;20049;-74
2022/05/18 07:04:06;;;;;;;0.40;0.40;;;31.30;81.80;;;;;;4988952;28;20042;-73
2022/05/18 07:06:35;;;;;;;0.98;0.80;;;31.50;79.30;;;;;;4987392;28;20133;-73
2022/05/18 07:09:01;;;;;;;0.75;0.47;;;31.50;80.10;;;;;;4958428;28;20125;-72
2022/05/18 07:11:27;;;;;;;0.73;0.45;;;31.50;80.10;;;;;;4996479;28;20042;-71
2022/05/18 07:13:55;;;;;;;0.10;0.05;;;31.70;78.90;;;;;;4983091;28;20055;-71
2022/05/18 07:16:26;;;;;;;1.25;0.55;;;31.80;79.30;;;;;;4996652;28;20058;-73
2022/05/18 07:18:53;;;;;;;0.77;0.57;;;31.80;77.60;;;;;;4995359;28;20046;-72
2022/05/18 07:21:19;;;;;;;1.45;0.30;;;32.00;77.00;;;;;;4996486;28;20053;-72
2022/05/18 07:23:46;;;;;;;0.50;0.50;;;31.60;76.70;;;;;;5000161;28;20130;-72
2022/05/18 07:26:12;;;;;;;2.55;0.75;;;31.60;77.50;;;;;;4995015;28;20113;-73
2022/05/18 07:28:39;;;;;;;0.22;0.20;;;31.80;76.60;;;;;;4992607;28;20053;-72
2022/05/18 07:31:05;;;;;;;0.32;0.20;;;32.10;75.90;;;;;;4970006;28;20117;-71
2022/05/18 07:33:31;;;;;;;0.73;0.32;;;32.10;74.00;;;;;;4995356;28;20042;-70
2022/05/18 07:35:56;;;;;;;0.10;0.10;;;31.60;76.00;;;;;;4977868;28;20085;-72
2022/05/18 07:38:26;;;;;;;0.10;0.10;;;31.50;75.90;;;;;;4995207;28;20533;-70
2022/05/18 07:40:52;;;;;;;1.60;0.50;;;32.10;75.10;;;;;;4991532;28;20113;-72
2022/05/18 07:43:18;;;;;;;0.20;0.20;;;32.10;74.70;;;;;;4994931;28;20050;-71
2022/05/18 07:45:48;;;;;;;0.85;0.40;;;32.30;74.10;;;;;;4995439;28;20379;-72
2022/05/18 07:48:14;;;;;;;0.47;0.32;;;32.30;73.30;;;;;;4987586;28;20044;-70
2022/05/18 07:50:40;;;;;;;0.20;0.20;;;31.90;73.80;;;;;;4992123;28;20050;-73
2022/05/18 07:53:06;;;;;;;0.52;0.50;;;32.30;74.30;;;;;;4978822;28;20485;-70
2022/05/18 07:55:32;;;;;;;0.30;0.30;;;32.20;73.50;;;;;;4995458;28;20054;-72
2022/05/18 07:57:58;;;;;;;3.22;0.40;;;32.10;72.80;;;;;;4977595;28;20077;-71
2022/05/18 08:00:24;;;;;;;2.25;0.77;;;32.00;73.50;;;;;;4995209;28;20412;-72
2022/05/18 08:02:51;;;;;;;1.85;0.35;;;32.00;73.20;;;;;;4987526;28;20078;-71
2022/05/18 08:05:17;;;;;;;0.08;0.08;;;31.90;74.10;;;;;;4986922;28;20042;-70
2022/05/18 08:07:45;;;;;;;0.35;0.30;;;32.00;75.00;;;;;;4989948;28;20050;-71
2022/05/18 08:15:43;;;;;;;0.93;0.77;;;31.80;74.10;;;;;;4978555;28;20386;-72
2022/05/18 08:18:09;;;;;;;0.43;0.38;;;31.90;72.70;;;;;;4945283;28;20061;-73
2022/05/18 08:20:39;;;;;;;0.22;0.22;;;32.40;72.90;;;;;;4977855;28;20046;-72
2022/05/18 08:23:05;;;;;;;0.38;0.28;;;32.40;72.60;;;;;;4995234;28;20378;-73
2022/05/18 08:25:31;;;;;;;0.10;0.10;;;32.10;73.00;;;;;;4994528;28;20042;-72
2022/05/18 08:27:57;;;;;;;0.10;0.10;;;32.30;73.80;;;;;;4983306;28;20070;-72
2022/05/18 08:30:23;;;;;;;0.10;0.10;;;32.40;74.30;;;;;;4982428;28;20038;-72
2022/05/18 08:32:50;;;;;;;0.20;0.10;;;32.80;71.10;;;;;;4976143;28;20129;-72
2022/05/18 08:35:17;;;;;;;0.52;0.35;;;33.00;71.30;;;;;;4976128;28;20035;-71
2022/05/18 08:37:47;;;;;;;0.38;0.30;;;32.80;70.40;;;;;;4978809;28;20050;-71
2022/05/18 08:40:28;;;;;;;0.15;0.15;;;32.70;69.20;;;;;;4962199;28;20035;-73
2022/05/18 08:43:01;;;;;;;0.70;0.43;;;33.00;69.40;;;;;;4959987;28;20101;-74
2022/05/18 08:45:34;;;;;;;0.28;0.20;;;32.70;69.60;;;;;;4975936;28;20069;-73
2022/05/18 08:48:19;;;;;;;0.10;0.10;;;32.90;69.50;;;;;;4958741;28;20054;-72
2022/05/18 08:50:45;;;;;;;1.90;0.57;;;33.00;68.90;;;;;;4975964;28;20039;-75
2022/05/18 08:53:32;;;;;;;0.10;0.10;;;33.00;70.10;;;;;;4975850;28;20049;-74
2022/05/18 08:56:14;;;;;;;0.20;0.17;;;33.00;67.70;;;;;;4962226;28;20455;-71
2022/05/18 08:58:39;;;;;;;;;;;32.70;68.50;;;;;;4945253;28;20062;-72
2022/05/18 09:01:12;;;;;;;0.40;0.30;;;32.80;67.20;;;;;;4978011;28;19929;-73
2022/05/18 09:03:52;;;;;;;0.15;0.10;;;32.90;66.60;;;;;;4995391;28;20054;-71
2022/05/18 09:06:42;;;;;;;0.00;0.00;;;33.00;68.90;;;;;;4992286;28;20046;-72
2022/05/18 09:12:24;;;;;;;0.70;0.30;;;32.60;66.20;;;;;;4958461;28;20061;-73
2022/05/18 09:14:52;;;;;;;1.08;0.28;;;32.10;65.80;;;;;;4958555;28;20129;-70
2022/05/18 09:17:26;;;;;;;2.30;0.40;;;31.60;67.10;;;;;;4958831;28;20138;-71
2022/05/18 09:20:22;;;;;;;0.08;0.08;;;31.60;68.40;;;;;;4975333;28;20054;-72
2022/05/18 09:23:18;;;;;;;0.20;0.20;;;31.10;69.10;;;;;;4966942;28;20057;-72
2022/05/18 09:26:19;;;;;;;1.30;0.52;;;31.00;69.90;;;;;;4998712;28;20050;-71
2022/05/18 09:29:10;;;;;;;1.20;0.82;;;30.90;70.40;;;;;;4998897;28;20096;-72
2022/05/18 09:32:07;;;;;;;0.52;0.30;;;31.00;70.50;;;;;;4946447;28;20054;-72
2022/05/18 09:34:42;;;;;;;0.10;0.10;;;30.80;69.90;;;;;;4981353;28;20104;-73
2022/05/18 09:37:14;;;;;;;0.30;0.30;;;30.60;70.50;;;;;;4996501;28;20627;-73
2022/05/18 09:39:43;;;;;;;;;;;30.90;71.30;;;;;;4979496;28;20045;-73
2022/05/18 09:42:16;;;;;;;0.60;0.25;;;31.00;69.70;;;;;;4961934;28;20266;-72
2022/05/18 09:44:58;;;;;;;0.95;0.50;;;31.20;68.30;;;;;;4977753;28;20082;-72
2022/05/18 09:47:32;;;;;;;0.22;0.20;;;31.40;70.00;;;;;;4978873;28;20050;-71
2022/05/18 09:50:04;;;;;;;0.17;0.17;;;31.50;68.90;;;;;;4961628;28;20034;-73
2022/05/18 09:52:31;;;;;;;0.10;0.10;;;31.70;70.50;;;;;;4963725;28;20051;-72
2022/05/18 09:54:59;;;;;;;5.68;0.60;;;31.50;68.70;;;;;;4992180;28;20046;-71
2022/05/18 09:57:48;;;;;;;0.40;0.30;;;31.30;69.40;;;;;;4980483;28;20038;-73
2022/05/18 10:00:17;;;;;;;0.25;0.20;;;31.10;68.50;;;;;;4961666;28;20042;-72
2022/05/18 10:08:24;;;;;;;0.10;0.10;;;31.00;70.20;;;;;;4988890;28;20046;-73
2022/05/18 10:10:56;;;;;;;0.45;0.45;;;31.00;70.00;;;;;;4997895;28;20046;-71
2022/05/18 10:13:25;;;;;;;0.20;0.20;;;31.10;70.60;;;;;;4980526;28;20050;-73
2022/05/18 10:16:02;;;;;;;0.38;0.30;;;31.10;69.80;;;;;;4998047;28;20051;-72
2022/05/18 10:18:41;;;;;;;0.32;0.20;;;31.10;70.80;;;;;;4997522;28;20141;-72
2022/05/18 10:21:09;;;;;;;0.10;0.10;;;31.20;71.00;;;;;;4997229;28;20125;-72
2022/05/18 10:24:03;;;;;;;0.20;0.20;;;31.10;70.70;;;;;;4961249;28;20066;-73
2022/05/18 10:26:36;;;;;;;0.28;0.20;;;31.20;70.90;;;;;;4979390;28;20407;-73
2022/05/18 10:29:19;;;;;;;0.40;0.40;;;31.30;70.20;;;;;;4997360;28;20042;-71
2022/05/18 10:32:01;;;;;;;0.30;0.30;;;31.40;69.90;;;;;;4997270;28;20462;-74
2022/05/18 10:34:31;;;;;;;0.35;0.32;;;31.20;68.20;;;;;;4997296;28;20379;-73
2022/05/18 10:37:00;;;;;;;0.30;0.22;;;31.40;70.70;;;;;;4997233;28;20053;-71
2022/05/18 10:39:30;;;;;;;0.90;0.40;;;31.20;69.00;;;;;;4993224;28;20047;-72
2022/05/18 10:42:45;;;;;;;0.38;0.30;;;31.20;70.10;;;;;;4961948;28;20118;-72
2022/05/18 10:45:29;;;;;;;0.50;0.35;;;31.20;70.50;;;;;;4977098;28;20066;-72
2022/05/18 10:47:58;;;;;;;0.45;0.38;;;31.20;70.20;;;;;;4961088;28;20054;-71
2022/05/18 10:50:36;;;;;;;1.70;0.90;;;31.40;71.60;;;;;;4977272;28;20042;-72
2022/05/18 10:53:29;;;;;;;0.17;0.10;;;31.50;71.10;;;;;;4990369;28;20042;-73
2022/05/18 10:55:57;;;;;;;1.50;0.32;;;31.50;70.40;;;;;;4972487;28;20054;-72
2022/05/18 10:59:02;;;;;;;0.95;0.50;;;31.30;71.40;;;;;;4996930;28;20065;-72
2022/05/18 11:01:58;;;;;;;0.43;0.38;;;31.30;70.60;;;;;;4949205;28;20166;-72
2022/05/18 11:04:34;;;;;;;0.15;0.15;;;31.10;70.20;;;;;;4963343;28;20057;-73
2022/05/18 11:07:00;;;;;;;0.30;0.22;;;31.00;70.60;;;;;;4992181;28;20049;-72
2022/05/18 11:09:30;;;;;;;1.27;0.55;;;30.80;70.50;;;;;;4996812;28;20039;-73
2022/05/18 11:12:12;;;;;;;0.47;0.20;;;30.60;70.40;;;;;;4996546;28;20054;-72
2022/05/18 11:15:07;;;;;;;0.30;0.25;;;30.70;71.60;;;;;;4996914;28;20071;-72
2022/05/18 11:17:47;;;;;;;0.52;0.50;;;30.90;71.80;;;;;;4963911;28;20121;-71
2022/05/18 11:20:29;;;;;;;0.32;0.25;;;31.20;72.60;;;;;;4995920;28;20058;-72
2022/05/18 11:23:15;;;;;;;0.22;0.20;;;31.10;70.10;;;;;;4983591;28;20043;-72
2022/05/18 11:25:40;;;;;;;1.60;0.63;;;31.20;70.90;;;;;;4979253;28;20463;-73
2022/05/18 11:28:12;;;;;;;0.40;0.40;;;31.50;71.80;;;;;;4996486;28;20116;-71
2022/05/18 11:30:48;;;;;;;0.47;0.30;;;31.50;72.20;;;;;;4963277;28;20463;-72
2022/05/18 11:33:31;;;;;;;3.97;1.00;;;31.40;71.30;;;;;;4996296;28;20269;-72
2022/05/18 11:36:28;;;;;;;0.38;0.30;;;31.40;71.40;;;;;;4979429;28;20042;-72
2022/05/18 11:39:14;;;;;;;0.10;0.10;;;31.50;70.10;;;;;;4986064;28;20039;-73
2022/05/18 11:41:57;;;;;;;0.40;0.30;;;31.60;71.60;;;;;;4959555;28;20067;-72
2022/05/18 11:45:09;;;;;;;0.10;0.10;;;31.70;71.60;;;;;;4959513;28;20459;-73
2022/05/18 11:47:58;;;;;;;0.20;0.20;;;31.70;72.40;;;;;;4959245;28;20046;-73
2022/05/18 11:51:04;;;;;;;1.02;0.82;;;32.10;71.60;;;;;;4976663;28;20055;-73
2022/05/18 11:53:53;;;;;;;0.73;0.40;;;32.20;71.30;;;;;;4976077;28;20115;-71
2022/05/18 11:56:38;;;;;;;2.67;1.35;;;32.40;71.30;;;;;;4995783;28;20042;-72
2022/05/18 11:59:28;;;;;;;1.30;0.75;;;32.30;71.30;;;;;;4995880;28;20061;-72
2022/05/18 12:02:05;;;;;;;1.25;0.55;;;32.00;69.70;;;;;;4995978;28;20065;-74
2022/05/18 12:05:08;;;;;;;0.75;0.52;;;32.00;70.90;;;;;;4995444;28;20410;-71
2022/05/18 12:08:26;;;;;;;1.15;0.47;;;32.00;72.40;;;;;;4966777;28;20047;-72
2022/05/18 12:11:18;;;;;;;1.08;0.35;;;31.80;72.40;;;;;;4959562;28;20043;-71
2022/05/18 12:13:50;;;;;;;0.30;0.30;;;31.70;72.00;;;;;;4959298;28;20495;-73
2022/05/18 12:16:28;;;;;;;1.17;0.40;;;31.70;71.80;;;;;;4976394;28;20050;-72
2022/05/18 12:19:09;;;;;;;0.22;0.22;;;31.90;72.50;;;;;;4976020;28;20069;-73
2022/05/18 12:21:43;;;;;;;3.95;1.45;;;31.70;70.50;;;;;;4959817;28;20058;-71
2022/05/18 12:24:10;;;;;;;0.20;0.20;;;31.50;72.00;;;;;;4994429;28;20458;-71
2022/05/18 12:26:40;;;;;;;0.10;0.10;;;31.30;71.90;;;;;;4994789;28;20125;-70
2022/05/18 12:29:09;;;;;;;0.10;0.10;;;31.30;73.30;;;;;;4977866;28;20038;-69
2022/05/18 12:31:36;;;;;;;0.25;0.25;;;31.20;72.80;;;;;;4998481;28;20034;-72
2022/05/18 12:34:12;;;;;;;0.77;0.52;;;31.20;72.70;;;;;;4995184;28;20117;-73
2022/05/18 12:37:08;;;;;;;0.13;0.10;;;31.20;71.90;;;;;;4985660;28;20047;-74
2022/05/18 12:39:47;;;;;;;0.73;0.43;;;31.00;72.30;;;;;;4975688;28;20039;-74
2022/05/18 12:42:22;;;;;;;0.55;0.30;;;31.20;74.40;;;;;;4975690;28;20039;-76
2022/05/18 12:44:55;;;;;;;0.20;0.20;;;31.40;73.90;;;;;;4975060;28;20154;-73
2022/05/18 12:47:52;;;;;;;0.70;0.47;;;31.50;72.40;;;;;;4958411;28;20093;-72
2022/05/18 12:51:05;;;;;;;0.47;0.35;;;31.40;73.30;;;;;;4958125;28;20047;-72
2022/05/18 12:53:48;;;;;;;0.85;0.40;;;31.20;73.80;;;;;;4893296;28;20470;-73
2022/05/18 12:56:25;;;;;;;0.25;0.25;;;31.40;74.10;;;;;;4977157;28;20047;-73
2022/05/18 12:58:59;;;;;;;0.47;0.43;;;31.50;74.20;;;;;;4978915;28;20053;-75
2022/05/18 13:01:29;;;;;;;1.15;0.75;;;31.50;74.40;;;;;;4979203;28;20243;-72
2022/05/18 13:04:25;;;;;;;0.30;0.30;;;31.60;74.20;;;;;;4978676;28;20042;-74
2022/05/18 13:07:16;;;;;;;0.47;0.40;;;31.60;74.00;;;;;;4985233;28;20046;-74
2022/05/18 13:09:45;;;;;;;9.10;0.75;;;31.50;74.60;;;;;;4968203;28;20047;-74
2022/05/18 13:12:30;;;;;;;0.77;0.57;;;31.50;73.90;;;;;;4961871;28;20383;-75
2022/05/18 13:15:36;;;;;;;0.38;0.30;;;31.30;73.60;;;;;;4945787;28;20049;-71
2022/05/18 13:18:13;;;;;;;0.10;0.10;;;31.30;73.50;;;;;;4961939;28;20082;-73
2022/05/18 13:20:56;;;;;;;0.10;0.10;;;31.30;73.90;;;;;;4978271;28;20062;-74
2022/05/18 13:23:33;;;;;;;0.10;0.10;;;31.40;72.60;;;;;;4961804;28;20154;-73
2022/05/18 13:26:09;;;;;;;0.88;0.30;;;31.40;73.30;;;;;;4978272;28;20061;-73
2022/05/18 13:28:35;;;;;;;0.20;0.17;;;31.30;74.00;;;;;;4978382;28;20054;-77
2022/05/18 13:31:04;;;;;;;0.15;0.15;;;31.10;73.20;;;;;;4961161;28;20601;-74